sensor_id;sensor_type;location;lat;lon;timestamp;P1;durP1;ratioP1;P2;durP2;ratioP2
6282;SDS011;3174;53.486;9.568;2022-10-16T00:01:31;5.57;;;3.33;;
6282;SDS011;3174;53.486;9.568;2022-10-16T00:04:01;5.67;;;3.20;;
6282;SDS011;3174;53.486;9.568;2022-10-16T00:06:30;5.90;;;3.00;;
6282;SDS011;3174;53.486;9.568;2022-10-16T00:08:58;8.30;;;4.07;;
6282;SDS011;3174;53.486;9.568;2022-10-16T00:11:27;4.80;;;3.20;;
6282;SDS011;3174;53.486;9.568;2022-10-16T00:13:57;6.17;;;3.00;;
6282;SDS011;3174;53.486;9.568;2022-10-16T00:16:26;4.50;;;2.97;;
6282;SDS011;3174;53.486;9.568;2022-10-16T00:18:55;3.97;;;2.70;;
6282;SDS011;3174;53.486;9.568;2022-10-16T00:21:25;5.97;;;2.53;;
6282;SDS011;3174;53.486;9.568;2022-10-16T00:23:55;5.07;;;2.57;;
6282;SDS011;3174;53.486;9.568;2022-10-16T00:26:25;3.07;;;2.30;;
6282;SDS011;3174;53.486;9.568;2022-10-16T00:28:54;4.43;;;2.77;;
6282;SDS011;3174;53.486;9.568;2022-10-16T00:31:22;3.77;;;2.33;;
6282;SDS011;3174;53.486;9.568;2022-10-16T00:33:51;5.07;;;2.43;;
6282;SDS011;3174;53.486;9.568;2022-10-16T00:36:20;4.70;;;2.80;;
6282;SDS011;3174;53.486;9.568;2022-10-16T00:38:51;4.30;;;2.50;;
6282;SDS011;3174;53.486;9.568;2022-10-16T00:41:21;4.17;;;2.40;;
6282;SDS011;3174;53.486;9.568;2022-10-16T00:43:51;4.93;;;2.47;;
6282;SDS011;3174;53.486;9.568;2022-10-16T00:46:20;4.30;;;2.53;;
6282;SDS011;3174;53.486;9.568;2022-10-16T00:48:50;5.57;;;2.60;;
6282;SDS011;3174;53.486;9.568;2022-10-16T00:51:21;3.37;;;2.30;;
6282;SDS011;3174;53.486;9.568;2022-10-16T00:53:54;3.03;;;2.17;;
6282;SDS011;3174;53.486;9.568;2022-10-16T00:56:22;3.13;;;2.23;;
6282;SDS011;3174;53.486;9.568;2022-10-16T00:58:50;7.30;;;2.13;;
6282;SDS011;3174;53.486;9.568;2022-10-16T01:01:18;5.67;;;2.27;;
6282;SDS011;3174;53.486;9.568;2022-10-16T01:03:46;5.77;;;2.20;;
6282;SDS011;3174;53.486;9.568;2022-10-16T01:06:24;7.57;;;2.10;;
6282;SDS011;3174;53.486;9.568;2022-10-16T01:09:00;4.37;;;2.10;;
6282;SDS011;3174;53.486;9.568;2022-10-16T01:11:36;6.10;;;2.03;;
6282;SDS011;3174;53.486;9.568;2022-10-16T01:14:10;3.47;;;2.20;;
6282;SDS011;3174;53.486;9.568;2022-10-16T01:16:43;2.97;;;1.97;;
6282;SDS011;3174;53.486;9.568;2022-10-16T01:19:16;5.87;;;2.30;;
6282;SDS011;3174;53.486;9.568;2022-10-16T01:21:47;3.47;;;1.80;;
6282;SDS011;3174;53.486;9.568;2022-10-16T01:24:24;2.50;;;1.80;;
6282;SDS011;3174;53.486;9.568;2022-10-16T01:29:48;3.20;;;1.80;;
6282;SDS011;3174;53.486;9.568;2022-10-16T01:32:22;5.80;;;1.80;;
6282;SDS011;3174;53.486;9.568;2022-10-16T01:34:54;3.10;;;1.80;;
6282;SDS011;3174;53.486;9.568;2022-10-16T01:37:29;4.37;;;1.90;;
6282;SDS011;3174;53.486;9.568;2022-10-16T01:40:00;2.70;;;1.50;;
6282;SDS011;3174;53.486;9.568;2022-10-16T01:42:33;3.37;;;1.50;;
6282;SDS011;3174;53.486;9.568;2022-10-16T01:45:03;2.40;;;1.47;;
6282;SDS011;3174;53.486;9.568;2022-10-16T01:47:34;6.33;;;1.60;;
6282;SDS011;3174;53.486;9.568;2022-10-16T01:50:03;3.60;;;1.70;;
6282;SDS011;3174;53.486;9.568;2022-10-16T01:52:33;3.27;;;1.53;;
6282;SDS011;3174;53.486;9.568;2022-10-16T01:55:02;3.00;;;1.50;;
6282;SDS011;3174;53.486;9.568;2022-10-16T01:57:33;6.50;;;1.90;;
6282;SDS011;3174;53.486;9.568;2022-10-16T02:00:06;2.03;;;1.43;;
6282;SDS011;3174;53.486;9.568;2022-10-16T02:02:36;1.83;;;1.27;;
6282;SDS011;3174;53.486;9.568;2022-10-16T02:05:08;3.60;;;1.43;;
6282;SDS011;3174;53.486;9.568;2022-10-16T02:07:39;3.20;;;1.50;;
6282;SDS011;3174;53.486;9.568;2022-10-16T02:10:08;3.60;;;1.40;;
6282;SDS011;3174;53.486;9.568;2022-10-16T02:12:38;5.60;;;1.30;;
6282;SDS011;3174;53.486;9.568;2022-10-16T02:15:08;2.90;;;1.20;;
6282;SDS011;3174;53.486;9.568;2022-10-16T02:17:36;3.23;;;1.20;;
6282;SDS011;3174;53.486;9.568;2022-10-16T02:20:05;2.93;;;1.30;;
6282;SDS011;3174;53.486;9.568;2022-10-16T02:22:34;3.10;;;1.27;;
6282;SDS011;3174;53.486;9.568;2022-10-16T02:25:05;1.93;;;1.17;;
6282;SDS011;3174;53.486;9.568;2022-10-16T02:27:35;2.47;;;1.23;;
6282;SDS011;3174;53.486;9.568;2022-10-16T02:30:09;4.53;;;1.20;;
6282;SDS011;3174;53.486;9.568;2022-10-16T02:32:40;3.30;;;1.60;;
6282;SDS011;3174;53.486;9.568;2022-10-16T02:35:10;3.40;;;1.33;;
6282;SDS011;3174;53.486;9.568;2022-10-16T02:37:38;3.30;;;1.20;;
6282;SDS011;3174;53.486;9.568;2022-10-16T02:40:08;4.87;;;1.40;;
6282;SDS011;3174;53.486;9.568;2022-10-16T02:42:37;5.17;;;1.40;;
6282;SDS011;3174;53.486;9.568;2022-10-16T02:45:09;2.30;;;1.27;;
6282;SDS011;3174;53.486;9.568;2022-10-16T02:47:37;3.00;;;1.50;;
6282;SDS011;3174;53.486;9.568;2022-10-16T02:50:06;2.47;;;1.23;;
6282;SDS011;3174;53.486;9.568;2022-10-16T02:52:34;4.30;;;1.53;;
6282;SDS011;3174;53.486;9.568;2022-10-16T02:55:02;3.20;;;1.30;;
6282;SDS011;3174;53.486;9.568;2022-10-16T02:57:31;2.87;;;1.53;;
6282;SDS011;3174;53.486;9.568;2022-10-16T02:59:59;2.90;;;1.37;;
6282;SDS011;3174;53.486;9.568;2022-10-16T03:02:28;3.83;;;1.50;;
6282;SDS011;3174;53.486;9.568;2022-10-16T03:04:56;3.73;;;1.60;;
6282;SDS011;3174;53.486;9.568;2022-10-16T03:07:24;3.20;;;1.63;;
6282;SDS011;3174;53.486;9.568;2022-10-16T03:09:53;2.70;;;1.50;;
6282;SDS011;3174;53.486;9.568;2022-10-16T03:12:21;2.67;;;1.60;;
6282;SDS011;3174;53.486;9.568;2022-10-16T03:14:49;1.90;;;1.23;;
6282;SDS011;3174;53.486;9.568;2022-10-16T03:17:17;3.47;;;1.10;;
6282;SDS011;3174;53.486;9.568;2022-10-16T03:19:46;2.83;;;1.10;;
6282;SDS011;3174;53.486;9.568;2022-10-16T03:22:14;3.37;;;2.40;;
6282;SDS011;3174;53.486;9.568;2022-10-16T03:24:42;5.87;;;1.30;;
6282;SDS011;3174;53.486;9.568;2022-10-16T03:27:10;3.30;;;1.37;;
6282;SDS011;3174;53.486;9.568;2022-10-16T03:29:38;3.17;;;1.50;;
6282;SDS011;3174;53.486;9.568;2022-10-16T03:32:06;2.23;;;1.50;;
6282;SDS011;3174;53.486;9.568;2022-10-16T03:34:34;4.00;;;1.63;;
6282;SDS011;3174;53.486;9.568;2022-10-16T03:37:03;2.93;;;1.47;;
6282;SDS011;3174;53.486;9.568;2022-10-16T03:39:31;2.63;;;1.30;;
6282;SDS011;3174;53.486;9.568;2022-10-16T03:41:59;2.90;;;1.50;;
6282;SDS011;3174;53.486;9.568;2022-10-16T03:44:27;2.73;;;1.10;;
6282;SDS011;3174;53.486;9.568;2022-10-16T03:46:55;3.73;;;1.37;;
6282;SDS011;3174;53.486;9.568;2022-10-16T03:49:23;3.43;;;1.50;;
6282;SDS011;3174;53.486;9.568;2022-10-16T03:51:51;2.67;;;1.53;;
6282;SDS011;3174;53.486;9.568;2022-10-16T03:54:20;3.77;;;1.50;;
6282;SDS011;3174;53.486;9.568;2022-10-16T03:56:49;4.27;;;1.40;;
6282;SDS011;3174;53.486;9.568;2022-10-16T03:59:17;3.50;;;1.40;;
6282;SDS011;3174;53.486;9.568;2022-10-16T04:01:45;3.57;;;1.20;;
6282;SDS011;3174;53.486;9.568;2022-10-16T04:04:13;7.23;;;4.37;;
6282;SDS011;3174;53.486;9.568;2022-10-16T04:06:41;22.57;;;10.27;;
6282;SDS011;3174;53.486;9.568;2022-10-16T04:09:09;5.03;;;1.40;;
6282;SDS011;3174;53.486;9.568;2022-10-16T04:11:39;3.13;;;1.50;;
6282;SDS011;3174;53.486;9.568;2022-10-16T04:14:07;2.53;;;1.77;;
6282;SDS011;3174;53.486;9.568;2022-10-16T04:16:34;2.10;;;1.60;;
6282;SDS011;3174;53.486;9.568;2022-10-16T04:19:03;5.50;;;1.40;;
6282;SDS011;3174;53.486;9.568;2022-10-16T04:21:31;2.97;;;1.43;;
6282;SDS011;3174;53.486;9.568;2022-10-16T04:23:59;1.97;;;1.20;;
6282;SDS011;3174;53.486;9.568;2022-10-16T04:26:27;5.17;;;1.20;;
6282;SDS011;3174;53.486;9.568;2022-10-16T04:28:56;2.00;;;1.40;;
6282;SDS011;3174;53.486;9.568;2022-10-16T04:31:24;3.00;;;1.53;;
6282;SDS011;3174;53.486;9.568;2022-10-16T04:33:52;2.33;;;1.20;;
6282;SDS011;3174;53.486;9.568;2022-10-16T04:36:20;2.83;;;1.53;;
6282;SDS011;3174;53.486;9.568;2022-10-16T04:38:53;4.23;;;1.63;;
6282;SDS011;3174;53.486;9.568;2022-10-16T04:41:21;4.07;;;1.57;;
6282;SDS011;3174;53.486;9.568;2022-10-16T04:43:49;4.80;;;1.80;;
6282;SDS011;3174;53.486;9.568;2022-10-16T04:46:19;4.60;;;1.53;;
6282;SDS011;3174;53.486;9.568;2022-10-16T04:48:47;3.93;;;2.10;;
6282;SDS011;3174;53.486;9.568;2022-10-16T04:51:14;2.83;;;1.77;;
6282;SDS011;3174;53.486;9.568;2022-10-16T04:53:42;3.93;;;1.70;;
6282;SDS011;3174;53.486;9.568;2022-10-16T04:56:10;2.50;;;1.63;;
6282;SDS011;3174;53.486;9.568;2022-10-16T04:58:38;1.90;;;1.50;;
6282;SDS011;3174;53.486;9.568;2022-10-16T05:01:06;5.40;;;2.43;;
6282;SDS011;3174;53.486;9.568;2022-10-16T05:03:36;3.03;;;1.80;;
6282;SDS011;3174;53.486;9.568;2022-10-16T05:06:04;6.50;;;2.20;;
6282;SDS011;3174;53.486;9.568;2022-10-16T05:08:32;3.10;;;2.00;;
6282;SDS011;3174;53.486;9.568;2022-10-16T05:11:00;3.03;;;2.10;;
6282;SDS011;3174;53.486;9.568;2022-10-16T05:13:28;3.40;;;1.70;;
6282;SDS011;3174;53.486;9.568;2022-10-16T05:15:56;4.30;;;1.90;;
6282;SDS011;3174;53.486;9.568;2022-10-16T05:18:24;6.60;;;2.27;;
6282;SDS011;3174;53.486;9.568;2022-10-16T05:20:53;6.00;;;2.23;;
6282;SDS011;3174;53.486;9.568;2022-10-16T05:23:21;5.13;;;2.23;;
6282;SDS011;3174;53.486;9.568;2022-10-16T05:25:53;3.37;;;2.00;;
6282;SDS011;3174;53.486;9.568;2022-10-16T05:28:21;6.53;;;2.53;;
6282;SDS011;3174;53.486;9.568;2022-10-16T05:30:49;3.83;;;2.40;;
6282;SDS011;3174;53.486;9.568;2022-10-16T05:33:21;3.87;;;2.27;;
6282;SDS011;3174;53.486;9.568;2022-10-16T05:35:50;5.27;;;2.40;;
6282;SDS011;3174;53.486;9.568;2022-10-16T05:38:19;5.93;;;2.40;;
6282;SDS011;3174;53.486;9.568;2022-10-16T05:40:50;5.03;;;2.70;;
6282;SDS011;3174;53.486;9.568;2022-10-16T05:43:18;5.13;;;2.27;;
6282;SDS011;3174;53.486;9.568;2022-10-16T05:45:53;4.60;;;2.40;;
6282;SDS011;3174;53.486;9.568;2022-10-16T05:48:21;5.33;;;2.57;;
6282;SDS011;3174;53.486;9.568;2022-10-16T05:50:56;8.30;;;2.73;;
6282;SDS011;3174;53.486;9.568;2022-10-16T05:53:26;4.07;;;2.70;;
6282;SDS011;3174;53.486;9.568;2022-10-16T05:55:55;4.57;;;2.83;;
6282;SDS011;3174;53.486;9.568;2022-10-16T05:58:25;4.80;;;3.00;;
6282;SDS011;3174;53.486;9.568;2022-10-16T06:00:55;6.90;;;2.70;;
6282;SDS011;3174;53.486;9.568;2022-10-16T06:03:25;6.50;;;2.50;;
6282;SDS011;3174;53.486;9.568;2022-10-16T06:05:53;4.17;;;2.67;;
6282;SDS011;3174;53.486;9.568;2022-10-16T06:08:21;4.47;;;2.60;;
6282;SDS011;3174;53.486;9.568;2022-10-16T06:11:01;4.43;;;2.93;;
6282;SDS011;3174;53.486;9.568;2022-10-16T06:13:29;5.90;;;2.70;;
6282;SDS011;3174;53.486;9.568;2022-10-16T06:15:57;9.60;;;2.93;;
6282;SDS011;3174;53.486;9.568;2022-10-16T06:18:27;3.73;;;2.43;;
6282;SDS011;3174;53.486;9.568;2022-10-16T06:20:56;4.90;;;2.47;;
6282;SDS011;3174;53.486;9.568;2022-10-16T06:23:24;3.80;;;2.43;;
6282;SDS011;3174;53.486;9.568;2022-10-16T06:25:52;4.03;;;2.67;;
6282;SDS011;3174;53.486;9.568;2022-10-16T06:28:22;8.37;;;2.97;;
6282;SDS011;3174;53.486;9.568;2022-10-16T06:30:58;7.60;;;2.83;;
6282;SDS011;3174;53.486;9.568;2022-10-16T06:33:32;7.77;;;2.77;;
6282;SDS011;3174;53.486;9.568;2022-10-16T06:36:01;9.10;;;3.07;;
6282;SDS011;3174;53.486;9.568;2022-10-16T06:38:30;6.83;;;3.00;;
6282;SDS011;3174;53.486;9.568;2022-10-16T06:40:58;7.73;;;2.80;;
6282;SDS011;3174;53.486;9.568;2022-10-16T06:43:28;7.07;;;2.67;;
6282;SDS011;3174;53.486;9.568;2022-10-16T06:45:58;3.43;;;2.60;;
6282;SDS011;3174;53.486;9.568;2022-10-16T06:48:27;6.27;;;3.20;;
6282;SDS011;3174;53.486;9.568;2022-10-16T06:50:57;5.80;;;2.90;;
6282;SDS011;3174;53.486;9.568;2022-10-16T06:53:26;6.07;;;2.60;;
6282;SDS011;3174;53.486;9.568;2022-10-16T06:56:06;4.50;;;2.50;;
6282;SDS011;3174;53.486;9.568;2022-10-16T06:58:36;6.97;;;3.20;;
6282;SDS011;3174;53.486;9.568;2022-10-16T07:01:05;5.93;;;2.50;;
6282;SDS011;3174;53.486;9.568;2022-10-16T07:03:33;4.70;;;2.90;;
6282;SDS011;3174;53.486;9.568;2022-10-16T07:06:03;5.63;;;2.70;;
6282;SDS011;3174;53.486;9.568;2022-10-16T07:08:32;4.37;;;3.10;;
6282;SDS011;3174;53.486;9.568;2022-10-16T07:11:01;5.57;;;3.00;;
6282;SDS011;3174;53.486;9.568;2022-10-16T07:13:32;12.97;;;3.23;;
6282;SDS011;3174;53.486;9.568;2022-10-16T07:16:05;5.30;;;2.83;;
6282;SDS011;3174;53.486;9.568;2022-10-16T07:18:33;8.57;;;3.13;;
6282;SDS011;3174;53.486;9.568;2022-10-16T07:21:03;6.13;;;3.23;;
6282;SDS011;3174;53.486;9.568;2022-10-16T07:23:32;5.93;;;2.93;;
6282;SDS011;3174;53.486;9.568;2022-10-16T07:25:59;4.80;;;2.80;;
6282;SDS011;3174;53.486;9.568;2022-10-16T07:28:28;4.60;;;3.03;;
6282;SDS011;3174;53.486;9.568;2022-10-16T07:30:59;5.87;;;2.70;;
6282;SDS011;3174;53.486;9.568;2022-10-16T07:33:29;4.87;;;2.90;;
6282;SDS011;3174;53.486;9.568;2022-10-16T07:35:57;7.57;;;2.97;;
6282;SDS011;3174;53.486;9.568;2022-10-16T07:38:25;5.53;;;3.03;;
6282;SDS011;3174;53.486;9.568;2022-10-16T07:40:57;4.90;;;2.73;;
6282;SDS011;3174;53.486;9.568;2022-10-16T07:43:26;4.03;;;2.47;;
6282;SDS011;3174;53.486;9.568;2022-10-16T07:45:54;4.87;;;3.17;;
6282;SDS011;3174;53.486;9.568;2022-10-16T07:48:28;8.27;;;3.13;;
6282;SDS011;3174;53.486;9.568;2022-10-16T07:50:58;7.23;;;2.90;;
6282;SDS011;3174;53.486;9.568;2022-10-16T07:53:26;4.90;;;2.73;;
6282;SDS011;3174;53.486;9.568;2022-10-16T07:55:56;13.97;;;3.03;;
6282;SDS011;3174;53.486;9.568;2022-10-16T07:58:25;4.63;;;2.70;;
6282;SDS011;3174;53.486;9.568;2022-10-16T08:00:54;4.87;;;2.80;;
6282;SDS011;3174;53.486;9.568;2022-10-16T08:03:22;6.80;;;3.10;;
6282;SDS011;3174;53.486;9.568;2022-10-16T08:05:52;4.57;;;3.07;;
6282;SDS011;3174;53.486;9.568;2022-10-16T08:08:20;5.13;;;2.60;;
6282;SDS011;3174;53.486;9.568;2022-10-16T08:10:48;4.40;;;2.87;;
6282;SDS011;3174;53.486;9.568;2022-10-16T08:13:16;3.67;;;2.60;;
6282;SDS011;3174;53.486;9.568;2022-10-16T08:15:44;5.27;;;2.80;;
6282;SDS011;3174;53.486;9.568;2022-10-16T08:18:13;5.33;;;3.20;;
6282;SDS011;3174;53.486;9.568;2022-10-16T08:20:42;3.93;;;3.17;;
6282;SDS011;3174;53.486;9.568;2022-10-16T08:23:12;5.17;;;3.10;;
6282;SDS011;3174;53.486;9.568;2022-10-16T08:25:40;5.67;;;2.83;;
6282;SDS011;3174;53.486;9.568;2022-10-16T08:28:10;6.40;;;2.87;;
6282;SDS011;3174;53.486;9.568;2022-10-16T08:30:38;4.67;;;3.37;;
6282;SDS011;3174;53.486;9.568;2022-10-16T08:33:06;6.03;;;3.17;;
6282;SDS011;3174;53.486;9.568;2022-10-16T08:35:34;5.23;;;2.90;;
6282;SDS011;3174;53.486;9.568;2022-10-16T08:38:02;4.13;;;2.83;;
6282;SDS011;3174;53.486;9.568;2022-10-16T08:40:32;4.13;;;2.53;;
6282;SDS011;3174;53.486;9.568;2022-10-16T08:43:05;4.57;;;2.97;;
6282;SDS011;3174;53.486;9.568;2022-10-16T08:46:02;4.37;;;2.53;;
6282;SDS011;3174;53.486;9.568;2022-10-16T08:48:44;4.33;;;2.70;;
6282;SDS011;3174;53.486;9.568;2022-10-16T08:51:16;2.93;;;2.20;;
6282;SDS011;3174;53.486;9.568;2022-10-16T08:53:49;4.03;;;2.57;;
6282;SDS011;3174;53.486;9.568;2022-10-16T08:56:20;3.23;;;2.27;;
6282;SDS011;3174;53.486;9.568;2022-10-16T08:58:48;3.50;;;2.47;;
6282;SDS011;3174;53.486;9.568;2022-10-16T09:01:23;4.10;;;2.70;;
6282;SDS011;3174;53.486;9.568;2022-10-16T09:04:00;7.20;;;2.83;;
6282;SDS011;3174;53.486;9.568;2022-10-16T09:06:45;4.67;;;2.50;;
6282;SDS011;3174;53.486;9.568;2022-10-16T09:09:18;3.30;;;1.97;;
6282;SDS011;3174;53.486;9.568;2022-10-16T09:11:57;5.33;;;2.17;;
6282;SDS011;3174;53.486;9.568;2022-10-16T09:14:35;3.57;;;1.80;;
6282;SDS011;3174;53.486;9.568;2022-10-16T09:17:13;2.37;;;1.80;;
6282;SDS011;3174;53.486;9.568;2022-10-16T09:19:49;4.20;;;1.70;;
6282;SDS011;3174;53.486;9.568;2022-10-16T09:22:19;2.50;;;1.50;;
6282;SDS011;3174;53.486;9.568;2022-10-16T09:24:49;3.53;;;1.70;;
6282;SDS011;3174;53.486;9.568;2022-10-16T09:27:19;5.30;;;1.97;;
6282;SDS011;3174;53.486;9.568;2022-10-16T09:29:47;2.93;;;1.63;;
6282;SDS011;3174;53.486;9.568;2022-10-16T09:32:16;3.03;;;1.77;;
6282;SDS011;3174;53.486;9.568;2022-10-16T09:34:47;3.70;;;1.63;;
6282;SDS011;3174;53.486;9.568;2022-10-16T09:37:17;4.37;;;1.90;;
6282;SDS011;3174;53.486;9.568;2022-10-16T09:39:47;4.27;;;1.83;;
6282;SDS011;3174;53.486;9.568;2022-10-16T09:42:16;5.63;;;2.10;;
6282;SDS011;3174;53.486;9.568;2022-10-16T09:44:47;3.43;;;1.77;;
6282;SDS011;3174;53.486;9.568;2022-10-16T09:47:18;3.80;;;1.67;;
6282;SDS011;3174;53.486;9.568;2022-10-16T09:49:51;4.30;;;1.67;;
6282;SDS011;3174;53.486;9.568;2022-10-16T09:52:21;1.67;;;1.40;;
6282;SDS011;3174;53.486;9.568;2022-10-16T09:54:51;5.87;;;1.40;;
6282;SDS011;3174;53.486;9.568;2022-10-16T09:57:21;1.50;;;1.30;;
6282;SDS011;3174;53.486;9.568;2022-10-16T09:59:51;1.50;;;1.20;;
6282;SDS011;3174;53.486;9.568;2022-10-16T10:02:23;6.90;;;1.60;;
6282;SDS011;3174;53.486;9.568;2022-10-16T10:04:55;2.40;;;1.67;;
6282;SDS011;3174;53.486;9.568;2022-10-16T10:07:24;3.57;;;1.50;;
6282;SDS011;3174;53.486;9.568;2022-10-16T10:09:54;5.40;;;1.47;;
6282;SDS011;3174;53.486;9.568;2022-10-16T10:12:25;2.13;;;1.30;;
6282;SDS011;3174;53.486;9.568;2022-10-16T10:14:55;3.20;;;1.67;;
6282;SDS011;3174;53.486;9.568;2022-10-16T10:17:23;4.20;;;1.70;;
6282;SDS011;3174;53.486;9.568;2022-10-16T10:19:53;2.80;;;1.30;;
6282;SDS011;3174;53.486;9.568;2022-10-16T10:22:23;4.93;;;1.50;;
6282;SDS011;3174;53.486;9.568;2022-10-16T10:24:57;3.33;;;1.37;;
6282;SDS011;3174;53.486;9.568;2022-10-16T10:27:47;2.77;;;1.30;;
6282;SDS011;3174;53.486;9.568;2022-10-16T10:30:29;6.50;;;1.20;;
6282;SDS011;3174;53.486;9.568;2022-10-16T10:33:09;8.37;;;1.73;;
6282;SDS011;3174;53.486;9.568;2022-10-16T10:35:44;2.40;;;1.20;;
6282;SDS011;3174;53.486;9.568;2022-10-16T10:38:20;3.87;;;1.33;;
6282;SDS011;3174;53.486;9.568;2022-10-16T10:40:57;3.10;;;1.00;;
6282;SDS011;3174;53.486;9.568;2022-10-16T10:43:38;1.53;;;1.00;;
6282;SDS011;3174;53.486;9.568;2022-10-16T10:46:15;2.33;;;1.13;;
6282;SDS011;3174;53.486;9.568;2022-10-16T10:48:54;2.67;;;1.10;;
6282;SDS011;3174;53.486;9.568;2022-10-16T10:51:28;1.40;;;0.90;;
6282;SDS011;3174;53.486;9.568;2022-10-16T10:54:04;1.27;;;0.90;;
6282;SDS011;3174;53.486;9.568;2022-10-16T10:56:41;3.13;;;1.00;;
6282;SDS011;3174;53.486;9.568;2022-10-16T10:59:24;2.30;;;1.10;;
6282;SDS011;3174;53.486;9.568;2022-10-16T11:02:10;2.27;;;0.97;;
6282;SDS011;3174;53.486;9.568;2022-10-16T11:04:48;1.27;;;0.80;;
6282;SDS011;3174;53.486;9.568;2022-10-16T11:07:24;2.37;;;0.80;;
6282;SDS011;3174;53.486;9.568;2022-10-16T11:09:55;2.20;;;0.70;;
6282;SDS011;3174;53.486;9.568;2022-10-16T11:12:27;1.97;;;0.70;;
6282;SDS011;3174;53.486;9.568;2022-10-16T11:15:00;1.13;;;0.80;;
6282;SDS011;3174;53.486;9.568;2022-10-16T11:17:30;1.77;;;0.90;;
6282;SDS011;3174;53.486;9.568;2022-10-16T11:20:00;1.80;;;1.10;;
6282;SDS011;3174;53.486;9.568;2022-10-16T11:22:32;1.43;;;0.90;;
6282;SDS011;3174;53.486;9.568;2022-10-16T11:25:04;1.23;;;0.90;;
6282;SDS011;3174;53.486;9.568;2022-10-16T11:27:36;3.07;;;1.10;;
6282;SDS011;3174;53.486;9.568;2022-10-16T11:30:11;4.40;;;0.90;;
6282;SDS011;3174;53.486;9.568;2022-10-16T11:32:45;3.40;;;0.83;;
6282;SDS011;3174;53.486;9.568;2022-10-16T11:35:19;3.90;;;1.00;;
6282;SDS011;3174;53.486;9.568;2022-10-16T11:37:50;2.87;;;1.00;;
6282;SDS011;3174;53.486;9.568;2022-10-16T11:40:22;1.20;;;0.87;;
6282;SDS011;3174;53.486;9.568;2022-10-16T11:42:54;3.43;;;1.10;;
6282;SDS011;3174;53.486;9.568;2022-10-16T11:45:29;3.37;;;1.00;;
6282;SDS011;3174;53.486;9.568;2022-10-16T11:48:02;4.37;;;1.10;;
6282;SDS011;3174;53.486;9.568;2022-10-16T11:50:36;2.57;;;1.10;;
6282;SDS011;3174;53.486;9.568;2022-10-16T11:53:09;2.23;;;0.97;;
6282;SDS011;3174;53.486;9.568;2022-10-16T11:55:41;1.73;;;1.20;;
6282;SDS011;3174;53.486;9.568;2022-10-16T11:58:15;4.30;;;1.00;;
6282;SDS011;3174;53.486;9.568;2022-10-16T12:00:53;3.33;;;1.07;;
6282;SDS011;3174;53.486;9.568;2022-10-16T12:03:26;2.80;;;0.77;;
6282;SDS011;3174;53.486;9.568;2022-10-16T12:06:06;2.10;;;0.97;;
6282;SDS011;3174;53.486;9.568;2022-10-16T12:08:41;4.93;;;1.00;;
6282;SDS011;3174;53.486;9.568;2022-10-16T12:11:20;4.30;;;1.43;;
6282;SDS011;3174;53.486;9.568;2022-10-16T12:13:51;5.90;;;1.20;;
6282;SDS011;3174;53.486;9.568;2022-10-16T12:16:22;1.80;;;1.00;;
6282;SDS011;3174;53.486;9.568;2022-10-16T12:19:02;3.13;;;0.80;;
6282;SDS011;3174;53.486;9.568;2022-10-16T12:21:35;2.87;;;0.90;;
6282;SDS011;3174;53.486;9.568;2022-10-16T12:24:03;3.33;;;0.90;;
6282;SDS011;3174;53.486;9.568;2022-10-16T12:26:32;2.53;;;1.10;;
6282;SDS011;3174;53.486;9.568;2022-10-16T12:29:13;1.33;;;0.73;;
6282;SDS011;3174;53.486;9.568;2022-10-16T12:31:44;2.37;;;1.63;;
6282;SDS011;3174;53.486;9.568;2022-10-16T12:34:24;2.37;;;1.03;;
6282;SDS011;3174;53.486;9.568;2022-10-16T12:36:54;4.67;;;0.93;;
6282;SDS011;3174;53.486;9.568;2022-10-16T12:39:23;1.40;;;0.63;;
6282;SDS011;3174;53.486;9.568;2022-10-16T12:42:00;2.70;;;1.03;;
6282;SDS011;3174;53.486;9.568;2022-10-16T12:44:31;1.33;;;0.80;;
6282;SDS011;3174;53.486;9.568;2022-10-16T12:47:02;2.80;;;1.10;;
6282;SDS011;3174;53.486;9.568;2022-10-16T12:49:35;1.60;;;0.93;;
6282;SDS011;3174;53.486;9.568;2022-10-16T12:52:04;3.90;;;0.90;;
6282;SDS011;3174;53.486;9.568;2022-10-16T12:54:47;3.67;;;1.07;;
6282;SDS011;3174;53.486;9.568;2022-10-16T12:57:23;4.13;;;2.17;;
6282;SDS011;3174;53.486;9.568;2022-10-16T13:00:06;1.23;;;1.07;;
6282;SDS011;3174;53.486;9.568;2022-10-16T13:05:56;2.73;;;1.33;;
6282;SDS011;3174;53.486;9.568;2022-10-16T13:08:35;3.57;;;1.43;;
6282;SDS011;3174;53.486;9.568;2022-10-16T13:11:12;2.83;;;1.10;;
6282;SDS011;3174;53.486;9.568;2022-10-16T13:13:51;2.67;;;1.20;;
6282;SDS011;3174;53.486;9.568;2022-10-16T13:16:35;2.73;;;1.00;;
6282;SDS011;3174;53.486;9.568;2022-10-16T13:19:12;1.90;;;0.87;;
6282;SDS011;3174;53.486;9.568;2022-10-16T13:21:48;7.10;;;1.00;;
6282;SDS011;3174;53.486;9.568;2022-10-16T13:24:22;2.27;;;0.90;;
6282;SDS011;3174;53.486;9.568;2022-10-16T13:26:57;3.60;;;0.87;;
6282;SDS011;3174;53.486;9.568;2022-10-16T13:29:29;0.93;;;0.80;;
6282;SDS011;3174;53.486;9.568;2022-10-16T13:31:58;8.57;;;1.10;;
6282;SDS011;3174;53.486;9.568;2022-10-16T13:34:26;3.67;;;1.00;;
6282;SDS011;3174;53.486;9.568;2022-10-16T13:36:56;3.97;;;0.80;;
6282;SDS011;3174;53.486;9.568;2022-10-16T13:39:24;1.73;;;0.97;;
6282;SDS011;3174;53.486;9.568;2022-10-16T13:42:03;4.33;;;0.90;;
6282;SDS011;3174;53.486;9.568;2022-10-16T13:44:35;3.83;;;0.90;;
6282;SDS011;3174;53.486;9.568;2022-10-16T13:47:14;3.80;;;0.77;;
6282;SDS011;3174;53.486;9.568;2022-10-16T13:49:43;4.17;;;0.93;;
6282;SDS011;3174;53.486;9.568;2022-10-16T13:52:16;3.90;;;1.07;;
6282;SDS011;3174;53.486;9.568;2022-10-16T13:54:45;1.67;;;0.90;;
6282;SDS011;3174;53.486;9.568;2022-10-16T13:57:14;2.33;;;0.90;;
6282;SDS011;3174;53.486;9.568;2022-10-16T13:59:52;1.37;;;0.73;;
6282;SDS011;3174;53.486;9.568;2022-10-16T14:02:22;3.00;;;0.93;;
6282;SDS011;3174;53.486;9.568;2022-10-16T14:04:54;2.67;;;0.90;;
6282;SDS011;3174;53.486;9.568;2022-10-16T14:07:24;5.10;;;1.60;;
6282;SDS011;3174;53.486;9.568;2022-10-16T14:09:53;2.03;;;0.97;;
6282;SDS011;3174;53.486;9.568;2022-10-16T14:12:22;5.97;;;1.30;;
6282;SDS011;3174;53.486;9.568;2022-10-16T14:14:54;2.53;;;0.87;;
6282;SDS011;3174;53.486;9.568;2022-10-16T14:17:23;4.73;;;1.17;;
6282;SDS011;3174;53.486;9.568;2022-10-16T14:19:54;2.30;;;0.90;;
6282;SDS011;3174;53.486;9.568;2022-10-16T14:22:30;3.40;;;1.00;;
6282;SDS011;3174;53.486;9.568;2022-10-16T14:25:00;2.83;;;0.90;;
6282;SDS011;3174;53.486;9.568;2022-10-16T14:27:29;2.23;;;0.87;;
6282;SDS011;3174;53.486;9.568;2022-10-16T14:30:15;2.30;;;0.53;;
6282;SDS011;3174;53.486;9.568;2022-10-16T14:32:52;3.73;;;0.87;;
6282;SDS011;3174;53.486;9.568;2022-10-16T14:35:22;4.83;;;0.90;;
6282;SDS011;3174;53.486;9.568;2022-10-16T14:37:53;2.37;;;0.77;;
6282;SDS011;3174;53.486;9.568;2022-10-16T14:40:23;3.17;;;0.97;;
6282;SDS011;3174;53.486;9.568;2022-10-16T14:42:52;4.83;;;1.10;;
6282;SDS011;3174;53.486;9.568;2022-10-16T14:45:20;6.13;;;3.00;;
6282;SDS011;3174;53.486;9.568;2022-10-16T14:47:50;5.40;;;4.40;;
6282;SDS011;3174;53.486;9.568;2022-10-16T14:50:19;3.70;;;1.60;;
6282;SDS011;3174;53.486;9.568;2022-10-16T14:52:47;4.70;;;2.00;;
6282;SDS011;3174;53.486;9.568;2022-10-16T14:55:17;3.83;;;1.10;;
6282;SDS011;3174;53.486;9.568;2022-10-16T14:57:45;6.87;;;0.90;;
6282;SDS011;3174;53.486;9.568;2022-10-16T15:00:15;2.03;;;1.07;;
6282;SDS011;3174;53.486;9.568;2022-10-16T15:02:45;5.63;;;1.40;;
6282;SDS011;3174;53.486;9.568;2022-10-16T15:05:15;1.63;;;1.20;;
6282;SDS011;3174;53.486;9.568;2022-10-16T15:07:45;3.27;;;2.27;;
6282;SDS011;3174;53.486;9.568;2022-10-16T15:10:13;4.27;;;1.30;;
6282;SDS011;3174;53.486;9.568;2022-10-16T15:12:43;1.80;;;1.07;;
6282;SDS011;3174;53.486;9.568;2022-10-16T15:15:21;4.10;;;0.93;;
6282;SDS011;3174;53.486;9.568;2022-10-16T15:18:01;3.23;;;0.87;;
6282;SDS011;3174;53.486;9.568;2022-10-16T15:20:30;3.00;;;1.00;;
6282;SDS011;3174;53.486;9.568;2022-10-16T15:23:00;5.33;;;1.13;;
6282;SDS011;3174;53.486;9.568;2022-10-16T15:25:33;3.07;;;1.03;;
6282;SDS011;3174;53.486;9.568;2022-10-16T15:28:08;2.40;;;0.87;;
6282;SDS011;3174;53.486;9.568;2022-10-16T15:30:37;1.33;;;0.83;;
6282;SDS011;3174;53.486;9.568;2022-10-16T15:33:09;4.90;;;1.20;;
6282;SDS011;3174;53.486;9.568;2022-10-16T15:35:39;3.83;;;0.90;;
6282;SDS011;3174;53.486;9.568;2022-10-16T15:38:09;2.07;;;0.83;;
6282;SDS011;3174;53.486;9.568;2022-10-16T15:40:38;3.50;;;1.10;;
6282;SDS011;3174;53.486;9.568;2022-10-16T15:43:08;2.73;;;0.93;;
6282;SDS011;3174;53.486;9.568;2022-10-16T15:45:37;3.60;;;1.70;;